Time;durP1;ratioP1;P1;durP2;ratioP2;P2;SDS_P1;SDS_P2;PMS_P1;PMS_P2;Temp;Humidity;BMP_temperature;BMP_pressure;BME280_temperature;BME280_humidity;BME280_pressure;Samples;Min_cycle;Max_cycle;Signal;HPM_P1;HPM_P2
2022/10/03 00:00:17;;;;;;;19.17;2.88;;;;;;;8.54;100.00;102709.72;5051633;28;20021;-73
2022/10/03 00:03:09;;;;;;;10.77;2.58;;;;;;;8.49;100.00;102713.88;5000194;28;20040;-73
2022/10/03 00:05:49;;;;;;;7.63;1.98;;;;;;;8.49;100.00;102711.16;5049175;28;20040;-74
2022/10/03 00:08:35;;;;;;;13.55;3.03;;;;;;;8.46;100.00;102719.59;5050371;28;20040;-73
2022/10/03 00:11:18;;;;;;;7.68;2.60;;;;;;;8.45;100.00;102712.41;5051446;28;20805;-73
2022/10/03 00:14:15;;;;;;;10.15;2.63;;;;;;;8.44;100.00;102721.63;5032009;28;20376;-73
2022/10/03 00:16:54;;;;;;;15.27;2.72;;;;;;;8.43;100.00;102725.34;5052120;28;20047;-74
2022/10/03 00:19:30;;;;;;;9.43;2.28;;;;;;;8.43;100.00;102728.09;5050278;28;20025;-73
2022/10/03 00:22:28;;;;;;;9.75;3.30;;;;;;;8.38;100.00;102727.63;5051156;28;20078;-74
2022/10/03 00:25:23;;;;;;;16.40;2.42;;;;;;;8.34;100.00;102732.47;5030805;28;20037;-73
2022/10/03 00:28:08;;;;;;;17.23;3.10;;;;;;;8.34;100.00;102734.38;5051867;28;20033;-74
2022/10/03 00:30:58;;;;;;;8.60;2.20;;;;;;;8.33;100.00;102729.91;5048782;28;20082;-73
2022/10/03 00:33:36;;;;;;;14.35;2.50;;;;;;;8.30;100.00;102731.06;5013966;28;20022;-73
2022/10/03 00:36:26;;;;;;;8.90;2.55;;;;;;;8.22;100.00;102730.00;5041301;28;20472;-73
2022/10/03 00:39:10;;;;;;;11.48;2.63;;;;;;;8.16;100.00;102728.63;5049824;28;20446;-73
2022/10/03 00:41:58;;;;;;;8.10;2.28;;;;;;;8.17;100.00;102737.69;5051532;28;20021;-73
2022/10/03 00:45:01;;;;;;;10.15;2.30;;;;;;;8.23;100.00;102742.66;5048844;28;20045;-74
2022/10/03 00:48:03;;;;;;;14.77;2.47;;;;;;;8.17;100.00;102748.63;5050409;28;20028;-73
2022/10/03 00:50:47;;;;;;;6.05;2.72;;;;;;;8.19;100.00;102747.47;5049867;28;20087;-73
2022/10/03 00:53:26;;;;;;;14.63;2.40;;;;;;;8.21;100.00;102750.97;5048406;28;20037;-73
2022/10/03 00:56:05;;;;;;;8.98;2.42;;;;;;;8.18;100.00;102758.53;5050897;28;20033;-73
2022/10/03 00:58:51;;;;;;;14.88;1.95;;;;;;;8.12;100.00;102762.66;5050069;28;20033;-73
2022/10/03 01:01:28;;;;;;;12.43;2.38;;;;;;;8.16;100.00;102764.13;5051951;28;20025;-70
2022/10/03 01:04:15;;;;;;;6.55;2.50;;;;;;;8.14;100.00;102765.25;5049651;28;20033;-72
2022/10/03 01:07:09;;;;;;;11.45;2.47;;;;;;;8.11;100.00;102763.66;5048982;28;20044;-70
2022/10/03 01:09:53;;;;;;;12.73;2.47;;;;;;;8.11;100.00;102769.13;5048967;28;20067;-70
2022/10/03 01:12:40;;;;;;;11.05;3.53;;;;;;;8.04;100.00;102773.38;5034761;28;20543;-71
2022/10/03 01:15:39;;;;;;;10.18;2.35;;;;;;;8.05;100.00;102774.22;5031412;28;20056;-71
2022/10/03 01:18:08;;;;;;;12.35;2.10;;;;;;;8.02;100.00;102769.91;5046836;28;20041;-70
2022/10/03 01:20:59;;;;;;;14.27;1.95;;;;;;;8.03;100.00;102770.78;5046660;28;20051;-70
2022/10/03 01:23:51;;;;;;;9.60;2.00;;;;;;;8.00;100.00;102777.38;5049501;28;20029;-70
2022/10/03 01:26:50;;;;;;;8.68;2.33;;;;;;;7.99;100.00;102778.38;5049086;28;20048;-71
2022/10/03 01:32:16;;;;;;;11.10;2.25;;;;;;;8.00;100.00;102771.06;5046958;28;20366;-71
2022/10/03 01:34:45;;;;;;;11.73;2.05;;;;;;;7.97;100.00;102763.13;5037764;28;20041;-71
2022/10/03 01:37:22;;;;;;;9.05;2.50;;;;;;;7.91;100.00;102761.78;5043568;28;20116;-70
2022/10/03 01:39:53;;;;;;;5.03;2.03;;;;;;;7.93;100.00;102769.84;5049949;28;20024;-70
2022/10/03 01:42:49;;;;;;;12.63;2.47;;;;;;;7.94;100.00;102769.72;5051524;28;20032;-70
2022/10/03 01:45:33;;;;;;;9.50;2.63;;;;;;;7.92;100.00;102779.03;5054338;28;20028;-70
2022/10/03 01:48:11;;;;;;;7.63;1.77;;;;;;;7.88;100.00;102783.03;5043914;28;20029;-69
2022/10/03 01:50:53;;;;;;;7.15;2.15;;;;;;;7.86;100.00;102788.59;5048655;28;20151;-71
2022/10/03 01:53:32;;;;;;;8.52;1.92;;;;;;;7.88;100.00;102781.19;5051090;28;20033;-70
2022/10/03 01:56:17;;;;;;;8.18;1.83;;;;;;;7.86;100.00;102776.84;5054102;28;20041;-70
2022/10/03 01:59:10;;;;;;;6.40;2.10;;;;;;;7.84;100.00;102787.03;5051656;28;21393;-70
2022/10/03 02:01:47;;;;;;;8.20;3.20;;;;;;;7.82;100.00;102775.38;5053949;28;20480;-70
2022/10/03 02:04:21;;;;;;;18.13;2.22;;;;;;;7.81;100.00;102782.72;5034075;28;20056;-70
2022/10/03 02:07:10;;;;;;;9.25;2.20;;;;;;;7.78;100.00;102785.69;5049224;28;20392;-71
2022/10/03 02:10:02;;;;;;;10.95;2.15;;;;;;;7.78;100.00;102796.59;5052999;28;20037;-70
2022/10/03 02:12:38;;;;;;;9.50;2.05;;;;;;;7.76;100.00;102786.81;5053952;28;20136;-70
2022/10/03 02:15:04;;;;;;;6.82;1.80;;;;;;;7.77;100.00;102785.81;5052237;28;20029;-69
2022/10/03 02:17:51;;;;;;;14.45;4.53;;;;;;;7.71;100.00;102800.88;5054014;28;20368;-69
2022/10/03 02:20:25;;;;;;;6.43;1.70;;;;;;;7.68;100.00;102784.75;5051802;28;20108;-70
2022/10/03 02:22:56;;;;;;;8.82;1.85;;;;;;;7.68;100.00;102789.34;5051198;28;20044;-69
2022/10/03 02:25:49;;;;;;;5.78;1.83;;;;;;;7.71;100.00;102791.81;5051695;28;20033;-70
2022/10/03 02:28:54;;;;;;;8.95;1.60;;;;;;;7.74;100.00;102781.50;5052651;28;20684;-70
2022/10/03 02:31:32;;;;;;;12.15;1.75;;;;;;;7.73;100.00;102774.31;5052017;28;20025;-71
2022/10/03 02:34:23;;;;;;;6.55;2.58;;;;;;;7.72;100.00;102785.34;5040309;28;20028;-69
2022/10/03 02:37:34;;;;;;;18.20;2.78;;;;;;;7.76;100.00;102778.63;5052759;28;20417;-70
2022/10/03 02:40:27;;;;;;;8.48;1.85;;;;;;;7.84;100.00;102774.25;5044332;28;20384;-71
2022/10/03 02:43:15;;;;;;;8.48;2.25;;;;;;;7.90;100.00;102770.97;5050929;28;20053;-72
2022/10/03 02:45:51;;;;;;;13.07;2.42;;;;;;;7.95;100.00;102770.59;5034090;28;20128;-71
2022/10/03 02:48:48;;;;;;;10.13;2.20;;;;;;;7.93;100.00;102773.47;5042326;28;20115;-71
2022/10/03 02:51:55;;;;;;;6.50;1.98;;;;;;;7.90;100.00;102770.97;5051623;28;20021;-71
2022/10/03 02:54:56;;;;;;;9.38;2.58;;;;;;;7.89;100.00;102776.56;5049171;28;20071;-70
2022/10/03 02:57:39;;;;;;;14.15;2.13;;;;;;;7.83;100.00;102777.09;5020455;28;20122;-71
2022/10/03 03:00:11;;;;;;;7.97;2.05;;;;;;;7.85;100.00;102781.44;5053084;28;20741;-72
2022/10/03 03:03:14;;;;;;;12.43;2.15;;;;;;;7.83;100.00;102788.00;5033495;28;20025;-70
2022/10/03 03:05:42;;;;;;;13.73;2.20;;;;;;;7.83;100.00;102788.00;5032968;28;20037;-69
2022/10/03 03:08:23;;;;;;;10.20;1.95;;;;;;;7.79;100.00;102771.06;5046417;28;20029;-69
2022/10/03 03:11:24;;;;;;;6.70;1.58;;;;;;;7.78;100.00;102782.09;5050905;28;20120;-70
2022/10/03 03:14:02;;;;;;;5.90;1.90;;;;;;;7.75;100.00;102787.81;5050122;28;20036;-71
2022/10/03 03:16:46;;;;;;;6.50;1.85;;;;;;;7.72;100.00;102788.06;5043032;28;20040;-71
2022/10/03 03:19:18;;;;;;;15.80;2.13;;;;;;;7.70;100.00;102777.28;5024219;28;20072;-72
2022/10/03 03:22:20;;;;;;;5.25;1.80;;;;;;;7.69;100.00;102781.00;5051464;28;20029;-72
2022/10/03 03:24:58;;;;;;;7.65;1.70;;;;;;;7.64;100.00;102776.97;5045869;28;20087;-72
2022/10/03 03:27:37;;;;;;;;;;;;;;;7.62;100.00;102782.53;5052216;28;20032;-71
2022/10/03 03:30:23;;;;;;;10.85;3.33;;;;;;;7.60;100.00;102787.28;5039048;28;20360;-71
2022/10/03 03:32:58;;;;;;;8.00;1.65;;;;;;;7.59;100.00;102790.97;5026877;28;20021;-73
2022/10/03 03:35:37;;;;;;;7.35;1.73;;;;;;;7.57;100.00;102792.09;5050972;28;20033;-71
2022/10/03 03:38:26;;;;;;;8.05;1.90;;;;;;;7.59;100.00;102790.13;5049752;28;20048;-71
2022/10/03 03:41:25;;;;;;;22.20;3.22;;;;;;;7.52;100.00;102797.13;5030923;28;20432;-72
2022/10/03 03:44:08;;;;;;;5.55;1.77;;;;;;;7.53;100.00;102796.09;5048782;28;20047;-70
2022/10/03 03:47:13;;;;;;;9.25;1.67;;;;;;;7.54;100.00;102803.28;5024914;28;20182;-69
2022/10/03 03:50:06;;;;;;;8.65;2.05;;;;;;;7.52;100.00;102799.84;5012938;28;20072;-70
2022/10/03 03:52:56;;;;;;;8.02;1.77;;;;;;;7.47;100.00;102804.81;5049095;28;20029;-70
2022/10/03 03:55:48;;;;;;;4.35;1.65;;;;;;;7.46;100.00;102800.31;5049993;28;20041;-70
2022/10/03 03:59:04;;;;;;;5.78;1.70;;;;;;;7.46;100.00;102805.78;5021028;28;20423;-70
2022/10/03 04:01:54;;;;;;;7.28;2.00;;;;;;;7.47;100.00;102807.53;5006378;28;20125;-72
2022/10/03 04:04:38;;;;;;;13.32;7.43;;;;;;;7.46;100.00;102811.22;5024690;28;20021;-71
2022/10/03 04:07:31;;;;;;;15.43;5.32;;;;;;;7.47;100.00;102799.34;5049104;28;20487;-70
2022/10/03 04:10:24;;;;;;;10.65;4.05;;;;;;;7.45;100.00;102809.50;5046076;28;20064;-70
2022/10/03 04:13:10;;;;;;;9.00;2.67;;;;;;;7.46;100.00;102811.22;5044082;28;20040;-70
2022/10/03 04:16:08;;;;;;;7.55;2.53;;;;;;;7.45;100.00;102809.50;5050259;28;20400;-70
2022/10/03 04:19:03;;;;;;;8.25;2.10;;;;;;;7.40;100.00;102809.91;5047296;28;20029;-70
2022/10/03 04:21:47;;;;;;;9.23;2.75;;;;;;;7.43;100.00;102806.06;5035004;28;20028;-70
2022/10/03 04:24:37;;;;;;;10.13;2.33;;;;;;;7.43;100.00;102801.44;5035007;28;20033;-70
2022/10/03 04:27:30;;;;;;;13.52;2.03;;;;;;;7.43;100.00;102814.25;5050764;28;20040;-70
2022/10/03 04:30:08;;;;;;;11.25;2.05;;;;;;;7.39;100.00;102802.72;5047255;28;20040;-70
2022/10/03 04:32:44;;;;;;;;;;;;;;;7.38;100.00;102802.84;5046473;28;20358;-69
2022/10/03 04:35:23;;;;;;;6.97;1.55;;;;;;;7.40;100.00;102800.84;5050602;28;20348;-70
2022/10/03 04:38:04;;;;;;;7.97;2.35;;;;;;;7.42;100.00;102807.06;5030533;28;20036;-70
2022/10/03 04:40:52;;;;;;;11.52;2.35;;;;;;;7.42;100.00;102815.25;5049765;28;20089;-69
2022/10/03 04:43:33;;;;;;;7.57;3.05;;;;;;;7.44;100.00;102814.13;5048649;28;20115;-69
2022/10/03 04:46:38;;;;;;;9.05;1.98;;;;;;;7.41;100.00;102810.75;5050146;28;20036;-69
2022/10/03 04:49:10;;;;;;;7.55;2.50;;;;;;;7.36;100.00;102811.16;5041202;28;20039;-70
2022/10/03 04:51:57;;;;;;;7.60;2.63;;;;;;;7.40;100.00;102829.00;5049928;28;20399;-70
2022/10/03 04:54:42;;;;;;;11.93;1.98;;;;;;;7.39;100.00;102823.66;5048361;28;20492;-70
2022/10/03 04:57:19;;;;;;;7.28;2.30;;;;;;;7.51;100.00;102820.78;5049969;28;20035;-71
2022/10/03 05:00:01;;;;;;;;;;;;;;;7.58;100.00;102821.97;5050145;28;20028;-69
2022/10/03 05:02:45;;;;;;;14.40;2.00;;;;;;;7.62;100.00;102807.09;5047061;28;19917;-70
2022/10/03 05:05:39;;;;;;;4.80;1.60;;;;;;;7.76;100.00;102814.09;5049073;28;20028;-72
2022/10/03 05:08:13;;;;;;;5.88;2.03;;;;;;;7.86;100.00;102815.03;5044233;28;20029;-69
2022/10/03 05:10:38;;;;;;;7.30;2.03;;;;;;;7.89;100.00;102814.75;5035540;28;20033;-69
2022/10/03 05:13:15;;;;;;;6.57;2.03;;;;;;;7.97;100.00;102814.97;5027030;28;20542;-69
2022/10/03 05:16:03;;;;;;;10.88;2.15;;;;;;;8.06;100.00;102814.19;5036584;28;20040;-68
2022/10/03 05:19:07;;;;;;;9.25;2.55;;;;;;;8.15;100.00;102816.09;5049247;28;20045;-69
2022/10/03 05:21:39;;;;;;;4.45;1.48;;;;;;;8.22;100.00;102811.91;5048809;28;20024;-70
2022/10/03 05:24:15;;;;;;;7.15;2.00;;;;;;;8.29;100.00;102816.69;5047231;28;20082;-69
2022/10/03 05:27:00;;;;;;;7.95;2.58;;;;;;;8.35;100.00;102818.00;5050083;28;20037;-71
2022/10/03 05:29:31;;;;;;;11.55;2.60;;;;;;;8.43;100.00;102821.78;5050665;28;20029;-70
2022/10/03 05:32:21;;;;;;;10.05;2.08;;;;;;;8.47;100.00;102831.44;5047777;28;20410;-69
2022/10/03 05:35:12;;;;;;;7.53;1.75;;;;;;;8.49;100.00;102826.69;5028648;28;20053;-71
2022/10/03 05:37:56;;;;;;;7.85;1.85;;;;;;;8.55;100.00;102828.88;5038223;28;20021;-70
2022/10/03 05:40:29;;;;;;;7.43;2.30;;;;;;;8.61;100.00;102828.38;5045526;28;20119;-70
2022/10/03 05:43:03;;;;;;;6.32;2.40;;;;;;;8.58;100.00;102828.63;5049669;28;20025;-70
2022/10/03 05:45:38;;;;;;;8.95;2.10;;;;;;;8.58;100.00;102836.81;5049831;28;20029;-71
2022/10/03 05:48:18;;;;;;;10.35;2.55;;;;;;;8.55;100.00;102836.22;5030994;28;20029;-70
2022/10/03 05:51:12;;;;;;;10.90;1.80;;;;;;;8.49;100.00;102832.16;5048958;28;20500;-71
2022/10/03 05:53:55;;;;;;;8.50;2.15;;;;;;;8.43;100.00;102838.16;5048299;28;20051;-70
2022/10/03 05:56:27;;;;;;;8.25;2.03;;;;;;;8.42;100.00;102841.91;5029659;28;20069;-71
2022/10/03 05:59:20;;;;;;;10.00;2.63;;;;;;;8.40;100.00;102841.19;5048504;28;20060;-71
2022/10/03 06:02:02;;;;;;;5.47;1.83;;;;;;;8.35;100.00;102840.72;5045285;28;20104;-70
2022/10/03 06:05:00;;;;;;;7.10;2.00;;;;;;;8.32;100.00;102834.66;5047408;28;20104;-70
2022/10/03 06:07:43;;;;;;;8.82;2.13;;;;;;;8.33;100.00;102841.84;5039151;28;20427;-69
2022/10/03 06:10:45;;;;;;;15.82;3.53;;;;;;;8.31;100.00;102844.72;5046593;28;20028;-69
2022/10/03 06:13:32;;;;;;;20.27;3.00;;;;;;;8.27;100.00;102842.41;5044373;28;20036;-69
2022/10/03 06:16:03;;;;;;;6.28;1.85;;;;;;;8.29;100.00;102848.56;5046803;28;20029;-71
2022/10/03 06:18:50;;;;;;;7.60;2.60;;;;;;;8.30;100.00;102842.09;5045199;28;20477;-71
2022/10/03 06:21:53;;;;;;;9.65;1.98;;;;;;;8.28;100.00;102844.97;5030867;28;20029;-71
2022/10/03 06:24:30;;;;;;;5.80;1.73;;;;;;;8.25;100.00;102841.63;5041608;28;20037;-71
2022/10/03 06:27:17;;;;;;;9.18;2.08;;;;;;;8.31;100.00;102843.81;5036754;28;20060;-70
2022/10/03 06:30:02;;;;;;;13.00;1.80;;;;;;;8.29;100.00;102841.25;5050645;28;20041;-72
2022/10/03 06:32:50;;;;;;;11.13;2.10;;;;;;;8.31;100.00;102849.28;5043245;28;20017;-71
2022/10/03 06:35:46;;;;;;;13.30;2.13;;;;;;;8.32;100.00;102856.50;5049934;28;20043;-71
2022/10/03 06:38:21;;;;;;;9.55;2.97;;;;;;;8.36;100.00;102853.38;5047136;28;20029;-71
2022/10/03 06:41:18;;;;;;;7.43;2.35;;;;;;;8.44;100.00;102860.88;5034350;28;20025;-72
2022/10/03 06:44:01;;;;;;;8.00;2.40;;;;;;;8.41;100.00;102856.56;5040905;28;20678;-72
2022/10/03 06:46:52;;;;;;;7.43;1.95;;;;;;;8.50;100.00;102866.66;5050275;28;20368;-70
2022/10/03 06:49:41;;;;;;;10.73;2.75;;;;;;;8.57;100.00;102872.44;5031913;28;20037;-72
2022/10/03 06:52:17;;;;;;;11.75;2.75;;;;;;;8.66;100.00;102866.19;5046186;28;20033;-70
2022/10/03 06:55:20;;;;;;;10.38;2.10;;;;;;;8.81;100.00;102875.75;5047561;28;20029;-71
2022/10/03 06:58:10;;;;;;;10.02;2.60;;;;;;;9.06;100.00;102869.81;5031757;28;20121;-71
2022/10/03 07:00:53;;;;;;;9.93;2.40;;;;;;;9.29;100.00;102877.66;5038016;28;20056;-71
2022/10/03 07:03:36;;;;;;;5.05;2.30;;;;;;;9.61;100.00;102880.22;5048175;28;20465;-70
2022/10/03 07:06:10;;;;;;;7.72;2.35;;;;;;;9.81;100.00;102882.81;5048582;28;20484;-71
2022/10/03 07:08:58;;;;;;;12.00;2.83;;;;;;;9.99;100.00;102872.03;5044477;28;20033;-71
2022/10/03 07:11:43;;;;;;;10.57;2.55;;;;;;;10.13;100.00;102885.31;5025439;28;20029;-71
2022/10/03 07:14:43;;;;;;;13.07;3.38;;;;;;;10.32;100.00;102879.81;5040805;28;20106;-71
2022/10/03 07:17:32;;;;;;;14.25;2.83;;;;;;;10.50;100.00;102869.84;5044190;28;20045;-70
2022/10/03 07:20:09;;;;;;;9.95;2.97;;;;;;;10.67;100.00;102880.91;5047585;28;20021;-71
2022/10/03 07:22:56;;;;;;;16.13;3.25;;;;;;;10.82;100.00;102887.66;5049860;28;20430;-71
2022/10/03 07:25:44;;;;;;;15.13;3.30;;;;;;;11.00;100.00;102893.22;5046301;28;20033;-71
2022/10/03 07:28:23;;;;;;;;;;;;;;;11.14;100.00;102896.31;5046466;28;20021;-71
2022/10/03 07:31:07;;;;;;;7.13;2.28;;;;;;;11.34;100.00;102886.13;5042164;28;20416;-71
2022/10/03 07:33:54;;;;;;;18.92;4.32;;;;;;;11.47;100.00;102892.97;5051709;28;20029;-71
2022/10/03 07:40:02;;;;;;;8.45;2.70;;;;;;;11.71;100.00;102892.44;5044761;28;20093;-71
2022/10/03 07:43:02;;;;;;;20.25;3.08;;;;;;;11.82;100.00;102903.19;5050526;28;20112;-71
2022/10/03 07:45:39;;;;;;;12.48;3.35;;;;;;;11.97;100.00;102893.41;5050033;28;20104;-70
2022/10/03 07:48:31;;;;;;;14.32;3.80;;;;;;;12.15;100.00;102891.50;5047822;28;20025;-71
2022/10/03 07:51:16;;;;;;;8.73;2.50;;;;;;;12.42;99.81;102892.28;5045549;28;20123;-71
2022/10/03 07:54:12;;;;;;;14.27;3.42;;;;;;;12.58;98.45;102891.53;5047236;28;20403;-69
2022/10/03 07:57:20;;;;;;;11.82;3.67;;;;;;;12.65;98.09;102898.13;5042500;28;20067;-70
2022/10/03 07:59:58;;;;;;;16.45;4.47;;;;;;;12.79;97.27;102898.41;5038613;28;20136;-71
2022/10/03 08:02:41;;;;;;;;;;;;;;;12.93;96.98;102896.94;5050605;28;20050;-70
2022/10/03 08:05:24;;;;;;;12.73;3.30;;;;;;;13.10;96.97;102887.78;5046752;28;20357;-70
2022/10/03 08:08:04;;;;;;;17.02;3.97;;;;;;;13.38;95.83;102898.44;5051080;28;20029;-71
2022/10/03 08:11:06;;;;;;;14.10;3.03;;;;;;;13.77;93.52;102894.06;5050241;28;20480;-71
2022/10/03 08:13:40;;;;;;;11.15;3.17;;;;;;;14.08;92.39;102895.19;5048859;28;20396;-72
2022/10/03 08:16:21;;;;;;;15.88;3.70;;;;;;;14.09;92.47;102912.59;5033070;28;20037;-70
2022/10/03 08:19:02;;;;;;;9.65;2.70;;;;;;;13.99;91.50;102915.47;5047040;28;20036;-72
2022/10/03 08:21:52;;;;;;;17.48;3.63;;;;;;;13.91;91.52;102918.22;5037483;28;20486;-70
2022/10/03 08:24:37;;;;;;;9.40;2.92;;;;;;;13.85;92.51;102912.53;5027627;28;20032;-70
2022/10/03 08:27:11;;;;;;;14.82;2.78;;;;;;;13.88;93.17;102918.56;5044995;28;20033;-71
2022/10/03 08:30:00;;;;;;;11.55;2.67;;;;;;;13.99;91.71;102909.13;5043646;28;20035;-70
2022/10/03 08:32:47;;;;;;;21.45;3.10;;;;;;;14.18;91.61;102914.31;5044186;28;20435;-69
2022/10/03 08:35:29;;;;;;;10.80;2.90;;;;;;;14.19;91.17;102919.69;5047504;28;20033;-70
2022/10/03 08:38:18;;;;;;;8.77;2.55;;;;;;;14.21;92.08;102922.28;5044294;28;20091;-71
2022/10/03 08:40:59;;;;;;;14.38;3.22;;;;;;;14.23;91.75;102920.22;5047435;28;20381;-71
2022/10/03 08:44:01;;;;;;;13.05;3.80;;;;;;;14.35;89.46;102925.22;5046917;28;20503;-70
2022/10/03 08:47:04;;;;;;;10.90;3.38;;;;;;;14.41;89.72;102926.44;5044125;28;20029;-71
2022/10/03 08:50:07;;;;;;;16.58;2.92;;;;;;;14.54;89.23;102924.91;5022803;28;20059;-71
2022/10/03 08:53:14;;;;;;;15.95;3.20;;;;;;;14.66;88.12;102920.75;5044480;28;20025;-70
2022/10/03 08:55:48;;;;;;;16.55;2.90;;;;;;;14.85;88.09;102916.75;5022788;28;20029;-71
2022/10/03 08:58:29;;;;;;;16.67;2.97;;;;;;;14.87;87.01;102920.19;5046869;28;20067;-71
2022/10/03 09:01:04;;;;;;;10.68;2.97;;;;;;;15.08;86.46;102915.88;5039618;28;20436;-71
2022/10/03 09:04:08;;;;;;;11.85;2.80;;;;;;;15.20;86.64;102914.44;5038180;28;20033;-71
2022/10/03 09:06:49;;;;;;;15.95;3.88;;;;;;;15.41;86.31;102916.63;5040880;28;20021;-71
2022/10/03 09:09:51;;;;;;;14.07;3.03;;;;;;;15.51;85.86;102914.53;5028124;28;20488;-70
2022/10/03 09:12:33;;;;;;;14.80;3.30;;;;;;;15.51;85.45;102918.16;5043125;28;20131;-70
2022/10/03 09:15:17;;;;;;;13.25;3.13;;;;;;;15.66;84.26;102912.75;5035329;28;20044;-71
2022/10/03 09:18:04;;;;;;;13.88;3.08;;;;;;;15.66;84.23;102913.63;5047012;28;20024;-70
2022/10/03 09:20:54;;;;;;;11.30;3.70;;;;;;;15.77;82.20;102906.81;5045818;28;20399;-70
2022/10/03 09:24:17;;;;;;;11.18;2.92;;;;;;;15.84;82.75;102900.38;5023234;28;20098;-70
2022/10/03 09:27:14;;;;;;;9.23;2.58;;;;;;;15.87;81.10;102899.16;4972422;28;20038;-70
2022/10/03 09:30:09;;;;;;;10.50;2.67;;;;;;;16.03;80.80;102896.28;4966796;28;20133;-71
2022/10/03 09:32:37;;;;;;;10.77;2.60;;;;;;;16.04;81.61;102904.41;5036731;28;20223;-70
2022/10/03 09:35:17;;;;;;;9.70;2.60;;;;;;;16.20;80.89;102897.91;5046057;28;20044;-70
2022/10/03 09:38:23;;;;;;;13.27;2.80;;;;;;;16.25;80.09;102892.69;5045303;28;20265;-71
2022/10/03 09:41:21;;;;;;;15.38;2.33;;;;;;;16.25;81.14;102906.50;5034525;28;20175;-70
2022/10/03 09:43:49;;;;;;;10.20;3.10;;;;;;;16.27;80.06;102898.91;5046351;28;20033;-71
2022/10/03 09:46:35;;;;;;;15.32;2.90;;;;;;;16.33;79.63;102899.00;5047260;28;20056;-70
2022/10/03 09:49:39;;;;;;;13.73;2.80;;;;;;;16.37;79.17;102897.59;5047190;28;20025;-70
2022/10/03 09:52:37;;;;;;;10.65;2.70;;;;;;;16.42;80.29;102906.22;5036739;28;20037;-70
2022/10/03 09:55:33;;;;;;;10.87;3.87;;;;;;;16.68;79.81;102911.38;5022105;28;20281;-70
2022/10/03 09:58:14;;;;;;;15.05;2.85;;;;;;;16.75;77.69;102899.34;5018555;28;20106;-72
2022/10/03 10:01:01;;;;;;;18.05;3.20;;;;;;;16.97;77.17;102909.50;5047032;28;20031;-72
2022/10/03 10:03:44;;;;;;;13.23;3.33;;;;;;;17.05;76.86;102900.25;5043245;28;20409;-72
2022/10/03 10:06:28;;;;;;;14.93;2.67;;;;;;;17.20;76.90;102898.38;5024890;28;20044;-71
2022/10/03 10:09:15;;;;;;;11.50;2.75;;;;;;;17.32;77.04;102896.84;5044285;28;20484;-70
2022/10/03 10:12:05;;;;;;;14.20;3.22;;;;;;;17.27;76.28;102894.66;5045171;28;20029;-70
2022/10/03 10:14:45;;;;;;;16.70;2.85;;;;;;;17.23;75.84;102886.94;5044441;28;20114;-70
2022/10/03 10:17:29;;;;;;;14.77;3.05;;;;;;;17.29;74.63;102892.53;5045172;28;20043;-72
2022/10/03 10:20:00;;;;;;;12.80;2.83;;;;;;;17.24;74.84;102892.25;5044796;28;20407;-70
2022/10/03 10:22:57;;;;;;;19.10;2.65;;;;;;;17.47;76.66;102894.97;5047131;28;20512;-72
2022/10/03 10:25:47;;;;;;;11.18;3.15;;;;;;;17.66;72.71;102894.38;5025951;28;20037;-70
2022/10/03 10:28:34;;;;;;;12.85;2.17;;;;;;;17.66;72.74;102905.47;5041322;28;20037;-70
2022/10/03 10:31:37;;;;;;;12.70;2.72;;;;;;;17.91;72.02;102892.97;5036949;28;20429;-70
2022/10/03 10:34:47;;;;;;;12.52;3.25;;;;;;;17.89;72.51;102895.94;5034164;28;20059;-72
2022/10/03 10:37:45;;;;;;;8.45;2.35;;;;;;;17.92;71.39;102903.03;5026348;28;20071;-71
2022/10/03 10:40:28;;;;;;;8.75;1.98;;;;;;;17.90;69.79;102896.78;5044210;28;20044;-71
2022/10/03 10:43:15;;;;;;;9.00;2.35;;;;;;;17.75;71.23;102893.19;5047724;28;20039;-71
2022/10/03 10:46:07;;;;;;;12.50;2.17;;;;;;;17.71;70.49;102891.88;5046187;28;20364;-70
2022/10/03 10:49:10;;;;;;;10.65;2.03;;;;;;;17.48;70.99;102893.91;5042433;28;20029;-70
2022/10/03 10:52:03;;;;;;;9.73;4.82;;;;;;;17.41;70.11;102891.06;5047845;28;20449;-70
2022/10/03 10:54:50;;;;;;;10.35;2.03;;;;;;;17.24;70.60;102881.16;5040384;28;20087;-70
2022/10/03 10:57:53;;;;;;;13.80;2.58;;;;;;;16.98;70.21;102888.22;5047007;28;20037;-70
2022/10/03 11:00:49;;;;;;;12.98;2.60;;;;;;;16.80;71.71;102888.59;5042597;28;20040;-70
2022/10/03 11:04:03;;;;;;;8.88;2.35;;;;;;;16.76;73.94;102883.63;5046039;28;20051;-70
2022/10/03 11:06:56;;;;;;;10.98;2.33;;;;;;;16.76;71.84;102886.41;5040817;28;20040;-71
2022/10/03 11:09:46;;;;;;;10.18;2.33;;;;;;;16.73;70.98;102882.09;5047635;28;20115;-70
2022/10/03 11:12:49;;;;;;;10.18;2.50;;;;;;;16.68;72.04;102878.16;5049322;28;20388;-71
2022/10/03 11:15:42;;;;;;;10.18;1.98;;;;;;;16.71;71.40;102886.09;5043293;28;20398;-70
2022/10/03 11:18:27;;;;;;;12.80;2.15;;;;;;;16.56;70.71;102883.28;5044236;28;20028;-71
2022/10/03 11:21:11;;;;;;;12.18;2.35;;;;;;;16.49;71.97;102882.31;5046373;28;20035;-71
2022/10/03 11:24:14;;;;;;;9.02;2.47;;;;;;;16.60;71.24;102879.09;5040652;28;20116;-71
2022/10/03 11:27:31;;;;;;;10.40;1.70;;;;;;;16.52;71.76;102884.72;5046261;28;20055;-70
2022/10/03 11:30:34;;;;;;;8.88;1.65;;;;;;;16.53;71.73;102888.31;4966418;28;20498;-70
2022/10/03 11:33:26;;;;;;;16.80;2.70;;;;;;;16.45;72.13;102885.63;4964697;28;20490;-70
2022/10/03 11:36:13;;;;;;;8.63;2.28;;;;;;;16.30;73.70;102890.22;5035648;28;20041;-71
2022/10/03 11:38:47;;;;;;;16.13;2.38;;;;;;;16.28;72.95;102884.84;5043469;28;20074;-71
2022/10/03 11:41:28;;;;;;;19.48;2.28;;;;;;;16.23;72.73;102886.47;5045418;28;20075;-70
2022/10/03 11:44:14;;;;;;;12.57;2.42;;;;;;;16.26;73.20;102888.84;5046118;28;20037;-71
2022/10/03 11:47:04;;;;;;;22.08;2.88;;;;;;;16.19;74.98;102887.88;5048098;28;20118;-71
2022/10/03 11:49:47;;;;;;;11.13;2.38;;;;;;;16.15;73.96;102887.41;5042028;28;20040;-70
2022/10/03 11:52:42;;;;;;;11.40;2.08;;;;;;;16.12;73.93;102890.50;5042751;28;20488;-71
2022/10/03 11:55:19;;;;;;;8.60;2.30;;;;;;;16.11;74.02;102887.97;5045284;28;20029;-71
2022/10/03 11:57:58;;;;;;;9.60;2.50;;;;;;;16.18;73.59;102880.63;5047914;28;20043;-71
2022/10/03 12:00:25;;;;;;;19.23;3.13;;;;;;;16.19;73.34;102880.47;5045711;28;20451;-70
2022/10/03 12:03:16;;;;;;;10.18;1.70;;;;;;;16.19;73.80;102885.13;5046781;28;20032;-71
2022/10/03 12:08:59;;;;;;;18.08;2.65;;;;;;;16.40;72.59;102880.66;5046377;28;20124;-70
2022/10/03 12:11:34;;;;;;;15.15;2.70;;;;;;;16.39;72.97;102883.63;5028466;28;20036;-70
2022/10/03 12:14:08;;;;;;;9.27;2.00;;;;;;;16.34;72.84;102884.13;5046679;28;20033;-70
2022/10/03 12:16:40;;;;;;;23.50;2.50;;;;;;;16.32;72.06;102872.38;5041925;28;20060;-70
2022/10/03 12:19:29;;;;;;;13.10;2.00;;;;;;;16.29;72.36;102878.31;5046265;28;20562;-70
2022/10/03 12:22:03;;;;;;;7.65;2.33;;;;;;;16.29;73.00;102869.13;5046681;28;20543;-71
2022/10/03 12:24:40;;;;;;;5.85;1.73;;;;;;;16.34;71.04;102883.28;5045635;28;20079;-70
2022/10/03 12:27:14;;;;;;;9.85;2.08;;;;;;;16.43;70.27;102871.13;5045591;28;20469;-70
2022/10/03 12:29:44;;;;;;;7.75;2.28;;;;;;;16.36;70.03;102861.81;5033876;28;20067;-71
2022/10/03 12:32:27;;;;;;;10.73;1.80;;;;;;;16.29;71.89;102874.66;5045924;28;20190;-70
2022/10/03 12:35:16;;;;;;;16.83;2.10;;;;;;;16.35;70.84;102868.41;5046351;28;20029;-70
2022/10/03 12:37:56;;;;;;;13.95;1.80;;;;;;;16.39;71.37;102865.09;5036564;28;20069;-71
2022/10/03 12:40:29;;;;;;;11.02;2.60;;;;;;;16.45;70.53;102864.38;5028289;28;20035;-71
2022/10/03 12:43:06;;;;;;;11.82;1.98;;;;;;;16.58;70.58;102858.19;5045291;28;20068;-70
2022/10/03 12:45:42;;;;;;;11.77;1.75;;;;;;;16.67;70.88;102846.00;5044254;28;20545;-72
2022/10/03 12:48:26;;;;;;;13.07;2.45;;;;;;;16.76;72.67;102853.19;5039932;28;20146;-69
2022/10/03 12:50:55;;;;;;;12.55;2.10;;;;;;;16.73;70.66;102864.59;5045435;28;20406;-70
2022/10/03 12:53:49;;;;;;;9.93;1.85;;;;;;;16.73;71.37;102857.19;5046410;28;20098;-70
2022/10/03 12:56:36;;;;;;;9.10;1.80;;;;;;;16.67;71.94;102855.16;5003615;28;20045;-69
2022/10/03 12:59:09;;;;;;;11.10;2.20;;;;;;;16.64;72.35;102849.16;5044452;28;20025;-70